sensor_id;sensor_type;location;lat;lon;timestamp;P1;durP1;ratioP1;P2;durP2;ratioP2
73132;SDS011;61320;52.008;4.530;2023-04-03T00:00:02;2.39;;;2.37;;
73132;SDS011;61320;52.008;4.530;2023-04-03T00:02:30;2.15;;;2.13;;
73132;SDS011;61320;52.008;4.530;2023-04-03T00:04:55;2.46;;;2.43;;
73132;SDS011;61320;52.008;4.530;2023-04-03T00:07:21;2.37;;;2.36;;
73132;SDS011;61320;52.008;4.530;2023-04-03T00:09:46;2.53;;;2.51;;
73132;SDS011;61320;52.008;4.530;2023-04-03T00:12:11;2.31;;;2.29;;
73132;SDS011;61320;52.008;4.530;2023-04-03T00:14:37;2.17;;;2.16;;
73132;SDS011;61320;52.008;4.530;2023-04-03T00:17:02;2.29;;;2.28;;
73132;SDS011;61320;52.008;4.530;2023-04-03T00:19:28;2.53;;;2.53;;
73132;SDS011;61320;52.008;4.530;2023-04-03T00:21:53;2.38;;;2.37;;
73132;SDS011;61320;52.008;4.530;2023-04-03T00:24:19;2.43;;;2.43;;
73132;SDS011;61320;52.008;4.530;2023-04-03T00:26:44;2.54;;;2.53;;
73132;SDS011;61320;52.008;4.530;2023-04-03T00:29:10;2.36;;;2.36;;
73132;SDS011;61320;52.008;4.530;2023-04-03T00:31:35;2.56;;;2.55;;
73132;SDS011;61320;52.008;4.530;2023-04-03T00:34:01;2.67;;;2.67;;
73132;SDS011;61320;52.008;4.530;2023-04-03T00:36:26;2.70;;;2.68;;
73132;SDS011;61320;52.008;4.530;2023-04-03T00:38:52;2.71;;;2.69;;
73132;SDS011;61320;52.008;4.530;2023-04-03T00:41:17;2.85;;;2.83;;
73132;SDS011;61320;52.008;4.530;2023-04-03T00:43:43;2.57;;;2.57;;
73132;SDS011;61320;52.008;4.530;2023-04-03T00:46:08;2.72;;;2.71;;
73132;SDS011;61320;52.008;4.530;2023-04-03T00:51:01;2.37;;;2.35;;
73132;SDS011;61320;52.008;4.530;2023-04-03T00:53:30;2.53;;;2.53;;
73132;SDS011;61320;52.008;4.530;2023-04-03T00:56:02;2.60;;;2.59;;
73132;SDS011;61320;52.008;4.530;2023-04-03T00:58:37;2.46;;;2.45;;
73132;SDS011;61320;52.008;4.530;2023-04-03T01:01:08;2.48;;;2.47;;
73132;SDS011;61320;52.008;4.530;2023-04-03T01:03:39;2.43;;;2.42;;
73132;SDS011;61320;52.008;4.530;2023-04-03T01:06:05;2.51;;;2.51;;
73132;SDS011;61320;52.008;4.530;2023-04-03T01:08:31;2.49;;;2.49;;
73132;SDS011;61320;52.008;4.530;2023-04-03T01:10:57;2.51;;;2.50;;
73132;SDS011;61320;52.008;4.530;2023-04-03T01:13:24;2.56;;;2.54;;
73132;SDS011;61320;52.008;4.530;2023-04-03T01:15:52;2.38;;;2.36;;
73132;SDS011;61320;52.008;4.530;2023-04-03T01:18:18;2.29;;;2.28;;
73132;SDS011;61320;52.008;4.530;2023-04-03T01:20:55;2.55;;;2.55;;
73132;SDS011;61320;52.008;4.530;2023-04-03T01:23:57;2.38;;;2.37;;
73132;SDS011;61320;52.008;4.530;2023-04-03T01:26:27;2.33;;;2.33;;
73132;SDS011;61320;52.008;4.530;2023-04-03T01:28:54;2.34;;;2.33;;
73132;SDS011;61320;52.008;4.530;2023-04-03T01:33:55;2.49;;;2.48;;
73132;SDS011;61320;52.008;4.530;2023-04-03T01:36:22;2.36;;;2.35;;
73132;SDS011;61320;52.008;4.530;2023-04-03T01:38:50;2.39;;;2.39;;
73132;SDS011;61320;52.008;4.530;2023-04-03T01:41:16;2.45;;;2.44;;
73132;SDS011;61320;52.008;4.530;2023-04-03T01:43:42;2.55;;;2.54;;
73132;SDS011;61320;52.008;4.530;2023-04-03T01:46:08;2.50;;;2.50;;
73132;SDS011;61320;52.008;4.530;2023-04-03T01:48:34;2.44;;;2.44;;
73132;SDS011;61320;52.008;4.530;2023-04-03T01:50:59;2.41;;;2.41;;
73132;SDS011;61320;52.008;4.530;2023-04-03T01:53:25;2.42;;;2.41;;
73132;SDS011;61320;52.008;4.530;2023-04-03T01:55:51;2.49;;;2.48;;
73132;SDS011;61320;52.008;4.530;2023-04-03T01:58:16;2.63;;;2.61;;
73132;SDS011;61320;52.008;4.530;2023-04-03T02:00:42;2.77;;;2.75;;
73132;SDS011;61320;52.008;4.530;2023-04-03T02:03:07;2.74;;;2.73;;
73132;SDS011;61320;52.008;4.530;2023-04-03T02:05:33;2.47;;;2.46;;
73132;SDS011;61320;52.008;4.530;2023-04-03T02:07:58;2.77;;;2.76;;
73132;SDS011;61320;52.008;4.530;2023-04-03T02:10:23;2.67;;;2.66;;
73132;SDS011;61320;52.008;4.530;2023-04-03T02:12:49;2.49;;;2.48;;
73132;SDS011;61320;52.008;4.530;2023-04-03T02:15:15;2.48;;;2.48;;
73132;SDS011;61320;52.008;4.530;2023-04-03T02:17:41;2.54;;;2.54;;
73132;SDS011;61320;52.008;4.530;2023-04-03T02:20:07;2.70;;;2.69;;
73132;SDS011;61320;52.008;4.530;2023-04-03T02:22:33;2.87;;;2.86;;
73132;SDS011;61320;52.008;4.530;2023-04-03T02:24:59;2.51;;;2.50;;
73132;SDS011;61320;52.008;4.530;2023-04-03T02:27:24;2.78;;;2.78;;
73132;SDS011;61320;52.008;4.530;2023-04-03T02:29:49;2.66;;;2.66;;
73132;SDS011;61320;52.008;4.530;2023-04-03T02:32:15;2.58;;;2.58;;
73132;SDS011;61320;52.008;4.530;2023-04-03T02:34:40;2.68;;;2.68;;
73132;SDS011;61320;52.008;4.530;2023-04-03T02:37:06;2.72;;;2.72;;
73132;SDS011;61320;52.008;4.530;2023-04-03T02:39:31;2.98;;;2.98;;
73132;SDS011;61320;52.008;4.530;2023-04-03T02:41:57;2.69;;;2.69;;
73132;SDS011;61320;52.008;4.530;2023-04-03T02:44:22;2.74;;;2.73;;
73132;SDS011;61320;52.008;4.530;2023-04-03T02:46:48;2.80;;;2.80;;
73132;SDS011;61320;52.008;4.530;2023-04-03T02:49:14;2.76;;;2.76;;
73132;SDS011;61320;52.008;4.530;2023-04-03T02:51:40;2.95;;;2.95;;
73132;SDS011;61320;52.008;4.530;2023-04-03T02:54:06;2.87;;;2.87;;
73132;SDS011;61320;52.008;4.530;2023-04-03T02:56:32;3.01;;;3.00;;
73132;SDS011;61320;52.008;4.530;2023-04-03T02:58:57;2.76;;;2.76;;
73132;SDS011;61320;52.008;4.530;2023-04-03T03:01:23;2.93;;;2.93;;
73132;SDS011;61320;52.008;4.530;2023-04-03T03:03:48;3.02;;;3.02;;
73132;SDS011;61320;52.008;4.530;2023-04-03T03:06:15;2.97;;;2.96;;
73132;SDS011;61320;52.008;4.530;2023-04-03T03:08:41;2.87;;;2.87;;
73132;SDS011;61320;52.008;4.530;2023-04-03T03:11:08;2.94;;;2.93;;
73132;SDS011;61320;52.008;4.530;2023-04-03T03:13:34;3.32;;;3.29;;
73132;SDS011;61320;52.008;4.530;2023-04-03T03:16:01;3.22;;;3.16;;
73132;SDS011;61320;52.008;4.530;2023-04-03T03:18:27;3.15;;;3.12;;
73132;SDS011;61320;52.008;4.530;2023-04-03T03:20:53;3.45;;;3.44;;
73132;SDS011;61320;52.008;4.530;2023-04-03T03:23:22;3.16;;;3.16;;
73132;SDS011;61320;52.008;4.530;2023-04-03T03:25:54;3.41;;;3.41;;
73132;SDS011;61320;52.008;4.530;2023-04-03T03:28:21;3.17;;;3.16;;
73132;SDS011;61320;52.008;4.530;2023-04-03T03:30:47;3.24;;;3.23;;
73132;SDS011;61320;52.008;4.530;2023-04-03T03:33:12;3.48;;;3.47;;
73132;SDS011;61320;52.008;4.530;2023-04-03T03:35:37;3.23;;;3.22;;
73132;SDS011;61320;52.008;4.530;2023-04-03T03:38:03;3.25;;;3.23;;
73132;SDS011;61320;52.008;4.530;2023-04-03T03:40:28;2.92;;;2.91;;
73132;SDS011;61320;52.008;4.530;2023-04-03T03:42:54;2.99;;;2.99;;
73132;SDS011;61320;52.008;4.530;2023-04-03T03:45:20;3.01;;;3.01;;
73132;SDS011;61320;52.008;4.530;2023-04-03T03:47:45;3.18;;;3.18;;
73132;SDS011;61320;52.008;4.530;2023-04-03T03:50:10;3.26;;;3.26;;
73132;SDS011;61320;52.008;4.530;2023-04-03T03:52:36;3.19;;;3.18;;
73132;SDS011;61320;52.008;4.530;2023-04-03T03:55:01;3.25;;;3.23;;
73132;SDS011;61320;52.008;4.530;2023-04-03T03:57:27;3.43;;;3.42;;
73132;SDS011;61320;52.008;4.530;2023-04-03T03:59:54;3.11;;;3.10;;
73132;SDS011;61320;52.008;4.530;2023-04-03T04:02:19;3.52;;;3.50;;
73132;SDS011;61320;52.008;4.530;2023-04-03T04:04:45;3.43;;;3.39;;
73132;SDS011;61320;52.008;4.530;2023-04-03T04:07:11;3.42;;;3.38;;
73132;SDS011;61320;52.008;4.530;2023-04-03T04:09:36;3.31;;;3.28;;
73132;SDS011;61320;52.008;4.530;2023-04-03T04:12:02;3.78;;;3.76;;
73132;SDS011;61320;52.008;4.530;2023-04-03T04:14:27;3.84;;;3.83;;
73132;SDS011;61320;52.008;4.530;2023-04-03T04:16:53;3.92;;;3.88;;
73132;SDS011;61320;52.008;4.530;2023-04-03T04:19:18;3.78;;;3.74;;
73132;SDS011;61320;52.008;4.530;2023-04-03T04:21:44;3.30;;;3.30;;
73132;SDS011;61320;52.008;4.530;2023-04-03T04:24:10;3.87;;;3.84;;
73132;SDS011;61320;52.008;4.530;2023-04-03T04:26:36;3.45;;;3.44;;
73132;SDS011;61320;52.008;4.530;2023-04-03T04:29:01;3.80;;;3.80;;
73132;SDS011;61320;52.008;4.530;2023-04-03T04:31:27;3.59;;;3.59;;
73132;SDS011;61320;52.008;4.530;2023-04-03T04:33:52;3.63;;;3.63;;
73132;SDS011;61320;52.008;4.530;2023-04-03T04:36:18;3.61;;;3.59;;
73132;SDS011;61320;52.008;4.530;2023-04-03T04:38:44;3.60;;;3.59;;
73132;SDS011;61320;52.008;4.530;2023-04-03T04:41:10;3.56;;;3.56;;
73132;SDS011;61320;52.008;4.530;2023-04-03T04:43:35;3.82;;;3.81;;
73132;SDS011;61320;52.008;4.530;2023-04-03T04:46:08;3.71;;;3.69;;
73132;SDS011;61320;52.008;4.530;2023-04-03T04:48:36;3.58;;;3.58;;
73132;SDS011;61320;52.008;4.530;2023-04-03T04:51:02;3.52;;;3.52;;
73132;SDS011;61320;52.008;4.530;2023-04-03T04:53:28;3.66;;;3.66;;
73132;SDS011;61320;52.008;4.530;2023-04-03T04:55:54;3.72;;;3.72;;
73132;SDS011;61320;52.008;4.530;2023-04-03T04:58:20;3.78;;;3.78;;
73132;SDS011;61320;52.008;4.530;2023-04-03T05:00:45;4.04;;;4.04;;
73132;SDS011;61320;52.008;4.530;2023-04-03T05:03:11;3.86;;;3.86;;
73132;SDS011;61320;52.008;4.530;2023-04-03T05:05:37;3.99;;;3.99;;
73132;SDS011;61320;52.008;4.530;2023-04-03T05:08:03;4.03;;;4.03;;
73132;SDS011;61320;52.008;4.530;2023-04-03T05:10:29;3.90;;;3.90;;
73132;SDS011;61320;52.008;4.530;2023-04-03T05:12:56;3.85;;;3.85;;
73132;SDS011;61320;52.008;4.530;2023-04-03T05:15:22;3.97;;;3.97;;
73132;SDS011;61320;52.008;4.530;2023-04-03T05:17:48;4.22;;;4.21;;
73132;SDS011;61320;52.008;4.530;2023-04-03T05:20:13;3.87;;;3.85;;
73132;SDS011;61320;52.008;4.530;2023-04-03T05:22:39;4.08;;;4.06;;
73132;SDS011;61320;52.008;4.530;2023-04-03T05:25:04;4.29;;;4.29;;
73132;SDS011;61320;52.008;4.530;2023-04-03T05:27:31;4.15;;;4.15;;
73132;SDS011;61320;52.008;4.530;2023-04-03T05:29:57;4.04;;;4.04;;
73132;SDS011;61320;52.008;4.530;2023-04-03T05:32:23;4.31;;;4.31;;
73132;SDS011;61320;52.008;4.530;2023-04-03T05:34:51;4.52;;;4.52;;
73132;SDS011;61320;52.008;4.530;2023-04-03T05:37:17;4.07;;;4.07;;
73132;SDS011;61320;52.008;4.530;2023-04-03T05:39:42;4.35;;;4.33;;
73132;SDS011;61320;52.008;4.530;2023-04-03T05:42:08;4.34;;;4.31;;
73132;SDS011;61320;52.008;4.530;2023-04-03T05:44:33;4.38;;;4.35;;
73132;SDS011;61320;52.008;4.530;2023-04-03T05:46:59;4.73;;;4.71;;
73132;SDS011;61320;52.008;4.530;2023-04-03T05:49:24;4.66;;;4.65;;
73132;SDS011;61320;52.008;4.530;2023-04-03T05:51:50;4.20;;;4.20;;
73132;SDS011;61320;52.008;4.530;2023-04-03T05:56:49;4.44;;;4.44;;
73132;SDS011;61320;52.008;4.530;2023-04-03T05:59:16;4.31;;;4.30;;
73132;SDS011;61320;52.008;4.530;2023-04-03T06:01:42;4.55;;;4.55;;
73132;SDS011;61320;52.008;4.530;2023-04-03T06:04:07;4.21;;;4.21;;
73132;SDS011;61320;52.008;4.530;2023-04-03T06:06:50;4.68;;;4.68;;
73132;SDS011;61320;52.008;4.530;2023-04-03T06:09:19;4.55;;;4.55;;
73132;SDS011;61320;52.008;4.530;2023-04-03T06:11:46;4.70;;;4.69;;
73132;SDS011;61320;52.008;4.530;2023-04-03T06:14:12;4.58;;;4.57;;
73132;SDS011;61320;52.008;4.530;2023-04-03T06:16:37;4.56;;;4.55;;
73132;SDS011;61320;52.008;4.530;2023-04-03T06:19:04;4.70;;;4.64;;
73132;SDS011;61320;52.008;4.530;2023-04-03T06:21:31;4.66;;;4.62;;
73132;SDS011;61320;52.008;4.530;2023-04-03T06:23:57;4.92;;;4.91;;
73132;SDS011;61320;52.008;4.530;2023-04-03T06:26:23;4.79;;;4.79;;
73132;SDS011;61320;52.008;4.530;2023-04-03T06:28:48;4.60;;;4.60;;
73132;SDS011;61320;52.008;4.530;2023-04-03T06:31:14;4.47;;;4.46;;
73132;SDS011;61320;52.008;4.530;2023-04-03T06:33:40;4.51;;;4.48;;
73132;SDS011;61320;52.008;4.530;2023-04-03T06:36:06;4.55;;;4.53;;
73132;SDS011;61320;52.008;4.530;2023-04-03T06:38:33;4.63;;;4.63;;
73132;SDS011;61320;52.008;4.530;2023-04-03T06:40:59;4.67;;;4.67;;
73132;SDS011;61320;52.008;4.530;2023-04-03T06:43:25;4.24;;;4.24;;
73132;SDS011;61320;52.008;4.530;2023-04-03T06:45:51;3.85;;;3.85;;
73132;SDS011;61320;52.008;4.530;2023-04-03T06:48:18;3.74;;;3.73;;
73132;SDS011;61320;52.008;4.530;2023-04-03T06:50:43;3.59;;;3.59;;
73132;SDS011;61320;52.008;4.530;2023-04-03T06:53:09;3.86;;;3.85;;
73132;SDS011;61320;52.008;4.530;2023-04-03T06:55:35;3.59;;;3.56;;
73132;SDS011;61320;52.008;4.530;2023-04-03T06:58:02;3.62;;;3.59;;
73132;SDS011;61320;52.008;4.530;2023-04-03T07:00:28;3.80;;;3.78;;
73132;SDS011;61320;52.008;4.530;2023-04-03T07:02:54;3.68;;;3.67;;
73132;SDS011;61320;52.008;4.530;2023-04-03T07:05:21;3.64;;;3.62;;
73132;SDS011;61320;52.008;4.530;2023-04-03T07:07:47;3.69;;;3.66;;
73132;SDS011;61320;52.008;4.530;2023-04-03T07:10:12;3.87;;;3.85;;
73132;SDS011;61320;52.008;4.530;2023-04-03T07:12:37;3.60;;;3.59;;
73132;SDS011;61320;52.008;4.530;2023-04-03T07:15:04;3.33;;;3.31;;
73132;SDS011;61320;52.008;4.530;2023-04-03T07:17:30;3.06;;;3.04;;
73132;SDS011;61320;52.008;4.530;2023-04-03T07:19:56;3.47;;;3.43;;
73132;SDS011;61320;52.008;4.530;2023-04-03T07:22:21;3.49;;;3.44;;
73132;SDS011;61320;52.008;4.530;2023-04-03T07:24:47;2.99;;;2.96;;
73132;SDS011;61320;52.008;4.530;2023-04-03T07:27:12;3.00;;;2.98;;
73132;SDS011;61320;52.008;4.530;2023-04-03T07:29:38;3.18;;;3.15;;
73132;SDS011;61320;52.008;4.530;2023-04-03T07:32:04;3.43;;;3.37;;
73132;SDS011;61320;52.008;4.530;2023-04-03T07:34:32;3.32;;;3.27;;
73132;SDS011;61320;52.008;4.530;2023-04-03T07:36:58;3.34;;;3.29;;
73132;SDS011;61320;52.008;4.530;2023-04-03T07:39:24;3.23;;;3.13;;
73132;SDS011;61320;52.008;4.530;2023-04-03T07:41:50;3.32;;;3.22;;
73132;SDS011;61320;52.008;4.530;2023-04-03T07:44:16;3.21;;;3.15;;
73132;SDS011;61320;52.008;4.530;2023-04-03T07:46:42;3.12;;;3.09;;
73132;SDS011;61320;52.008;4.530;2023-04-03T07:49:08;3.28;;;3.21;;
73132;SDS011;61320;52.008;4.530;2023-04-03T07:51:33;3.36;;;3.29;;
73132;SDS011;61320;52.008;4.530;2023-04-03T07:53:59;3.24;;;3.18;;
73132;SDS011;61320;52.008;4.530;2023-04-03T07:56:25;3.42;;;3.35;;
73132;SDS011;61320;52.008;4.530;2023-04-03T07:58:50;3.22;;;3.19;;
73132;SDS011;61320;52.008;4.530;2023-04-03T08:01:16;3.17;;;3.14;;
73132;SDS011;61320;52.008;4.530;2023-04-03T08:03:42;3.17;;;3.12;;
73132;SDS011;61320;52.008;4.530;2023-04-03T08:06:07;3.53;;;3.47;;
73132;SDS011;61320;52.008;4.530;2023-04-03T08:08:34;3.19;;;3.13;;
73132;SDS011;61320;52.008;4.530;2023-04-03T08:11:00;3.32;;;3.21;;
73132;SDS011;61320;52.008;4.530;2023-04-03T08:13:28;3.21;;;3.12;;
73132;SDS011;61320;52.008;4.530;2023-04-03T08:15:54;3.06;;;3.01;;
73132;SDS011;61320;52.008;4.530;2023-04-03T08:18:20;3.32;;;3.23;;
73132;SDS011;61320;52.008;4.530;2023-04-03T08:20:49;3.24;;;3.15;;
73132;SDS011;61320;52.008;4.530;2023-04-03T08:23:15;3.06;;;2.98;;
73132;SDS011;61320;52.008;4.530;2023-04-03T08:25:42;3.15;;;3.08;;
73132;SDS011;61320;52.008;4.530;2023-04-03T08:28:08;3.45;;;3.39;;
73132;SDS011;61320;52.008;4.530;2023-04-03T08:30:36;3.28;;;3.22;;
73132;SDS011;61320;52.008;4.530;2023-04-03T08:33:07;3.30;;;3.26;;
73132;SDS011;61320;52.008;4.530;2023-04-03T08:35:37;3.31;;;3.27;;
73132;SDS011;61320;52.008;4.530;2023-04-03T08:38:05;3.26;;;3.18;;
73132;SDS011;61320;52.008;4.530;2023-04-03T08:40:31;3.28;;;3.18;;
73132;SDS011;61320;52.008;4.530;2023-04-03T08:48:29;2.95;;;2.83;;
73132;SDS011;61320;52.008;4.530;2023-04-03T08:51:04;3.00;;;2.94;;
73132;SDS011;61320;52.008;4.530;2023-04-03T08:53:41;2.96;;;2.91;;
73132;SDS011;61320;52.008;4.530;2023-04-03T08:56:15;3.26;;;3.17;;
73132;SDS011;61320;52.008;4.530;2023-04-03T09:04:05;2.55;;;2.53;;
73132;SDS011;61320;52.008;4.530;2023-04-03T09:06:37;2.65;;;2.62;;
73132;SDS011;61320;52.008;4.530;2023-04-03T09:22:55;1.93;;;1.86;;
73132;SDS011;61320;52.008;4.530;2023-04-03T09:25:22;1.81;;;1.76;;
73132;SDS011;61320;52.008;4.530;2023-04-03T09:27:54;2.07;;;2.01;;
73132;SDS011;61320;52.008;4.530;2023-04-03T09:30:24;2.12;;;2.06;;
73132;SDS011;61320;52.008;4.530;2023-04-03T09:32:53;1.95;;;1.88;;
73132;SDS011;61320;52.008;4.530;2023-04-03T09:35:35;1.96;;;1.87;;
73132;SDS011;61320;52.008;4.530;2023-04-03T09:40:37;1.68;;;1.62;;
73132;SDS011;61320;52.008;4.530;2023-04-03T09:45:44;1.64;;;1.59;;
73132;SDS011;61320;52.008;4.530;2023-04-03T09:53:28;1.43;;;1.38;;
73132;SDS011;61320;52.008;4.530;2023-04-03T09:55:54;1.42;;;1.39;;
73132;SDS011;61320;52.008;4.530;2023-04-03T09:58:24;1.62;;;1.59;;
73132;SDS011;61320;52.008;4.530;2023-04-03T10:01:00;1.58;;;1.54;;
73132;SDS011;61320;52.008;4.530;2023-04-03T10:03:31;1.70;;;1.66;;
73132;SDS011;61320;52.008;4.530;2023-04-03T10:06:01;1.55;;;1.51;;
73132;SDS011;61320;52.008;4.530;2023-04-03T10:08:32;1.41;;;1.39;;
73132;SDS011;61320;52.008;4.530;2023-04-03T10:11:10;1.44;;;1.42;;
73132;SDS011;61320;52.008;4.530;2023-04-03T10:16:41;1.67;;;1.66;;
73132;SDS011;61320;52.008;4.530;2023-04-03T10:22:10;1.66;;;1.63;;
73132;SDS011;61320;52.008;4.530;2023-04-03T10:36:03;1.51;;;1.46;;
73132;SDS011;61320;52.008;4.530;2023-04-03T10:41:21;1.32;;;1.29;;
73132;SDS011;61320;52.008;4.530;2023-04-03T10:46:47;1.15;;;1.12;;
73132;SDS011;61320;52.008;4.530;2023-04-03T10:52:04;0.97;;;0.95;;
73132;SDS011;61320;52.008;4.530;2023-04-03T10:57:36;1.39;;;1.36;;
73132;SDS011;61320;52.008;4.530;2023-04-03T11:00:04;1.29;;;1.25;;
73132;SDS011;61320;52.008;4.530;2023-04-03T11:02:56;1.28;;;1.24;;
73132;SDS011;61320;52.008;4.530;2023-04-03T11:11:06;1.28;;;1.25;;
73132;SDS011;61320;52.008;4.530;2023-04-03T11:14:11;1.27;;;1.23;;
73132;SDS011;61320;52.008;4.530;2023-04-03T11:16:38;1.23;;;1.20;;
73132;SDS011;61320;52.008;4.530;2023-04-03T11:19:18;1.22;;;1.20;;
73132;SDS011;61320;52.008;4.530;2023-04-03T11:22:00;1.42;;;1.40;;
73132;SDS011;61320;52.008;4.530;2023-04-03T11:24:32;1.26;;;1.25;;
73132;SDS011;61320;52.008;4.530;2023-04-03T11:27:01;1.18;;;1.16;;
73132;SDS011;61320;52.008;4.530;2023-04-03T11:29:34;1.20;;;1.19;;
73132;SDS011;61320;52.008;4.530;2023-04-03T11:32:09;1.07;;;1.06;;
73132;SDS011;61320;52.008;4.530;2023-04-03T11:34:42;1.13;;;1.12;;
73132;SDS011;61320;52.008;4.530;2023-04-03T11:37:40;1.07;;;1.04;;
73132;SDS011;61320;52.008;4.530;2023-04-03T11:42:40;0.93;;;0.91;;
73132;SDS011;61320;52.008;4.530;2023-04-03T11:45:22;1.01;;;1.00;;
73132;SDS011;61320;52.008;4.530;2023-04-03T11:47:57;0.80;;;0.79;;
73132;SDS011;61320;52.008;4.530;2023-04-03T11:50:43;0.80;;;0.79;;
73132;SDS011;61320;52.008;4.530;2023-04-03T12:16:19;0.88;;;0.87;;
73132;SDS011;61320;52.008;4.530;2023-04-03T12:24:26;1.16;;;1.15;;
73132;SDS011;61320;52.008;4.530;2023-04-03T12:40:31;0.98;;;0.98;;
73132;SDS011;61320;52.008;4.530;2023-04-03T12:45:59;1.10;;;1.09;;
73132;SDS011;61320;52.008;4.530;2023-04-03T12:48:53;1.09;;;1.08;;
73132;SDS011;61320;52.008;4.530;2023-04-03T12:51:21;1.09;;;1.08;;
73132;SDS011;61320;52.008;4.530;2023-04-03T12:53:52;1.25;;;1.24;;
73132;SDS011;61320;52.008;4.530;2023-04-03T12:56:27;1.29;;;1.27;;
73132;SDS011;61320;52.008;4.530;2023-04-03T12:58:55;1.34;;;1.32;;
73132;SDS011;61320;52.008;4.530;2023-04-03T13:01:42;1.35;;;1.33;;
73132;SDS011;61320;52.008;4.530;2023-04-03T13:04:10;1.26;;;1.25;;
73132;SDS011;61320;52.008;4.530;2023-04-03T13:06:39;1.27;;;1.27;;
73132;SDS011;61320;52.008;4.530;2023-04-03T13:09:17;1.61;;;1.58;;
73132;SDS011;61320;52.008;4.530;2023-04-03T13:12:10;1.39;;;1.35;;
73132;SDS011;61320;52.008;4.530;2023-04-03T13:14:38;1.45;;;1.41;;
73132;SDS011;61320;52.008;4.530;2023-04-03T13:17:12;1.45;;;1.42;;
73132;SDS011;61320;52.008;4.530;2023-04-03T13:19:40;1.72;;;1.70;;
73132;SDS011;61320;52.008;4.530;2023-04-03T13:22:53;1.49;;;1.47;;
73132;SDS011;61320;52.008;4.530;2023-04-03T13:25:05;1.62;;;1.60;;
73132;SDS011;61320;52.008;4.530;2023-04-03T13:27:34;1.76;;;1.74;;
73132;SDS011;61320;52.008;4.530;2023-04-03T13:30:03;1.79;;;1.78;;
73132;SDS011;61320;52.008;4.530;2023-04-03T13:32:30;1.72;;;1.71;;
73132;SDS011;61320;52.008;4.530;2023-04-03T13:34:57;1.70;;;1.68;;
73132;SDS011;61320;52.008;4.530;2023-04-03T13:37:26;1.65;;;1.63;;
73132;SDS011;61320;52.008;4.530;2023-04-03T13:39:58;1.63;;;1.61;;
73132;SDS011;61320;52.008;4.530;2023-04-03T13:42:25;1.72;;;1.70;;
73132;SDS011;61320;52.008;4.530;2023-04-03T13:47:41;1.64;;;1.62;;
73132;SDS011;61320;52.008;4.530;2023-04-03T13:52:40;1.46;;;1.44;;
73132;SDS011;61320;52.008;4.530;2023-04-03T13:57:49;1.74;;;1.71;;
73132;SDS011;61320;52.008;4.530;2023-04-03T14:00:37;1.60;;;1.57;;
73132;SDS011;61320;52.008;4.530;2023-04-03T14:03:12;1.83;;;1.81;;
73132;SDS011;61320;52.008;4.530;2023-04-03T14:05:43;1.74;;;1.72;;
73132;SDS011;61320;52.008;4.530;2023-04-03T14:08:10;1.60;;;1.58;;
73132;SDS011;61320;52.008;4.530;2023-04-03T14:10:36;1.64;;;1.61;;
73132;SDS011;61320;52.008;4.530;2023-04-03T14:13:02;1.56;;;1.54;;
73132;SDS011;61320;52.008;4.530;2023-04-03T14:15:29;1.59;;;1.56;;
73132;SDS011;61320;52.008;4.530;2023-04-03T14:17:57;1.67;;;1.65;;
73132;SDS011;61320;52.008;4.530;2023-04-03T14:20:24;1.79;;;1.77;;
73132;SDS011;61320;52.008;4.530;2023-04-03T14:22:51;2.26;;;2.26;;
73132;SDS011;61320;52.008;4.530;2023-04-03T14:25:19;1.68;;;1.68;;
73132;SDS011;61320;52.008;4.530;2023-04-03T14:27:48;1.74;;;1.73;;
73132;SDS011;61320;52.008;4.530;2023-04-03T14:30:21;1.68;;;1.65;;
73132;SDS011;61320;52.008;4.530;2023-04-03T14:32:54;1.65;;;1.64;;
73132;SDS011;61320;52.008;4.530;2023-04-03T14:35:21;1.77;;;1.75;;
73132;SDS011;61320;52.008;4.530;2023-04-03T14:37:50;1.92;;;1.89;;
73132;SDS011;61320;52.008;4.530;2023-04-03T14:40:22;1.87;;;1.85;;
73132;SDS011;61320;52.008;4.530;2023-04-03T14:42:51;1.82;;;1.80;;
73132;SDS011;61320;52.008;4.530;2023-04-03T14:45:20;1.63;;;1.62;;
73132;SDS011;61320;52.008;4.530;2023-04-03T14:47:51;1.59;;;1.59;;
73132;SDS011;61320;52.008;4.530;2023-04-03T14:50:22;1.63;;;1.62;;
73132;SDS011;61320;52.008;4.530;2023-04-03T14:52:50;1.54;;;1.53;;
73132;SDS011;61320;52.008;4.530;2023-04-03T14:55:19;1.51;;;1.50;;
73132;SDS011;61320;52.008;4.530;2023-04-03T14:57:47;1.56;;;1.55;;
73132;SDS011;61320;52.008;4.530;2023-04-03T15:00:20;1.76;;;1.75;;
73132;SDS011;61320;52.008;4.530;2023-04-03T15:02:47;1.83;;;1.81;;
73132;SDS011;61320;52.008;4.530;2023-04-03T15:05:13;1.62;;;1.60;;
73132;SDS011;61320;52.008;4.530;2023-04-03T15:07:46;1.86;;;1.85;;
73132;SDS011;61320;52.008;4.530;2023-04-03T15:10:17;1.66;;;1.65;;
73132;SDS011;61320;52.008;4.530;2023-04-03T15:13:06;1.44;;;1.44;;
73132;SDS011;61320;52.008;4.530;2023-04-03T15:15:33;1.76;;;1.74;;
73132;SDS011;61320;52.008;4.530;2023-04-03T15:18:01;1.75;;;1.72;;
73132;SDS011;61320;52.008;4.530;2023-04-03T15:20:30;1.97;;;1.94;;
73132;SDS011;61320;52.008;4.530;2023-04-03T15:23:00;2.01;;;1.99;;
73132;SDS011;61320;52.008;4.530;2023-04-03T15:25:26;1.69;;;1.68;;
73132;SDS011;61320;52.008;4.530;2023-04-03T15:27:53;1.68;;;1.68;;
73132;SDS011;61320;52.008;4.530;2023-04-03T15:30:22;1.86;;;1.86;;
73132;SDS011;61320;52.008;4.530;2023-04-03T15:32:48;1.86;;;1.86;;
73132;SDS011;61320;52.008;4.530;2023-04-03T15:35:13;1.99;;;1.98;;
73132;SDS011;61320;52.008;4.530;2023-04-03T15:37:39;2.00;;;1.99;;
73132;SDS011;61320;52.008;4.530;2023-04-03T15:40:05;1.94;;;1.93;;
73132;SDS011;61320;52.008;4.530;2023-04-03T15:42:31;1.65;;;1.63;;
73132;SDS011;61320;52.008;4.530;2023-04-03T15:44:57;1.85;;;1.83;;
73132;SDS011;61320;52.008;4.530;2023-04-03T15:47:23;1.94;;;1.92;;
73132;SDS011;61320;52.008;4.530;2023-04-03T15:49:50;2.01;;;1.99;;
73132;SDS011;61320;52.008;4.530;2023-04-03T15:52:15;1.78;;;1.78;;
73132;SDS011;61320;52.008;4.530;2023-04-03T15:54:40;1.99;;;1.99;;
73132;SDS011;61320;52.008;4.530;2023-04-03T15:57:08;2.02;;;2.02;;
73132;SDS011;61320;52.008;4.530;2023-04-03T15:59:34;1.98;;;1.97;;
73132;SDS011;61320;52.008;4.530;2023-04-03T16:01:59;2.24;;;2.24;;
73132;SDS011;61320;52.008;4.530;2023-04-03T16:04:30;2.40;;;2.38;;
73132;SDS011;61320;52.008;4.530;2023-04-03T16:06:57;2.24;;;2.20;;
73132;SDS011;61320;52.008;4.530;2023-04-03T16:09:26;1.97;;;1.97;;
73132;SDS011;61320;52.008;4.530;2023-04-03T16:11:52;2.09;;;2.08;;
73132;SDS011;61320;52.008;4.530;2023-04-03T16:14:17;2.22;;;2.22;;
73132;SDS011;61320;52.008;4.530;2023-04-03T16:16:42;2.03;;;2.02;;
73132;SDS011;61320;52.008;4.530;2023-04-03T16:19:08;2.01;;;2.00;;
73132;SDS011;61320;52.008;4.530;2023-04-03T16:21:34;2.06;;;2.05;;
73132;SDS011;61320;52.008;4.530;2023-04-03T16:24:00;2.09;;;2.08;;
73132;SDS011;61320;52.008;4.530;2023-04-03T16:26:26;2.12;;;2.09;;
73132;SDS011;61320;52.008;4.530;2023-04-03T16:28:52;2.32;;;2.25;;
73132;SDS011;61320;52.008;4.530;2023-04-03T16:31:18;1.96;;;1.93;;
73132;SDS011;61320;52.008;4.530;2023-04-03T16:33:44;2.13;;;2.09;;
73132;SDS011;61320;52.008;4.530;2023-04-03T16:36:10;2.22;;;2.16;;
73132;SDS011;61320;52.008;4.530;2023-04-03T16:38:36;2.02;;;1.98;;
73132;SDS011;61320;52.008;4.530;2023-04-03T16:41:01;2.30;;;2.28;;
73132;SDS011;61320;52.008;4.530;2023-04-03T16:43:30;2.26;;;2.24;;
73132;SDS011;61320;52.008;4.530;2023-04-03T16:45:56;2.18;;;2.16;;
73132;SDS011;61320;52.008;4.530;2023-04-03T16:48:22;2.35;;;2.33;;
73132;SDS011;61320;52.008;4.530;2023-04-03T16:50:48;2.15;;;2.14;;
73132;SDS011;61320;52.008;4.530;2023-04-03T16:53:18;2.12;;;2.09;;
73132;SDS011;61320;52.008;4.530;2023-04-03T16:55:44;2.12;;;2.11;;
73132;SDS011;61320;52.008;4.530;2023-04-03T16:58:10;2.15;;;2.14;;
73132;SDS011;61320;52.008;4.530;2023-04-03T17:00:35;2.36;;;2.34;;
73132;SDS011;61320;52.008;4.530;2023-04-03T17:03:01;2.45;;;2.41;;
73132;SDS011;61320;52.008;4.530;2023-04-03T17:05:27;2.25;;;2.18;;